Pesca Real — CUCD-5 — position and weather

sailwx.info

Track history (hours):
 
Tides and Currents Weather Stations Pressure Air Temp Water Temp Dewpoint Dewpoint Depression Visibility Wind Speed Wind Dir Waves Ship Positions

Pesca Real

Last reported at 2018-Feb-18 22:45 UTC. Time now 2018-Feb-19 12:25 UTC.
Position N 41°00' W 008°45'.

Length 11 m.

Type: Fishing. MMSI: 263267000.

Date/timePositionNaut miles runAvg speedWind from/ knotsBaromVisibWave heightAir tempDewpointWater temp
2018-Feb-18 22:45N 41°00' W 008°45'3 9.9
2018-Feb-18 22:27N 41°03' W 008°44'4 9.8
2018-Feb-18 22:00N 41°07' W 008°43'4 7.1
2018-Feb-18 21:30N 41°11' W 008°42'  
2018-Feb-16 11:04N 41°11' W 008°42'0 0.0
2018-Feb-16 11:00N 41°11' W 008°42'0 0.1
2018-Feb-16 10:30N 41°11' W 008°42'  
2018-Feb-12 03:43N 41°11' W 008°42'0 0.0
2018-Feb-12 03:28N 41°11' W 008°42'3 7.4
2018-Feb-12 03:00N 41°08' W 008°42'8 2.4
2018-Feb-11 23:29N 40°59' W 008°44'5 9.2
2018-Feb-11 22:59N 41°04' W 008°43'5 9.7
2018-Feb-11 22:30N 41°09' W 008°43'2 4.9
2018-Feb-11 22:01N 41°11' W 008°42'  
2018-Feb-09 12:00N 41°11' W 008°42'  
Track history (hours):
 
Tides and Currents Weather Stations Pressure Air Temp Water Temp Dewpoint Dewpoint Depression Visibility Wind Speed Wind Dir Waves Ship Positions

Pesca Real

Last reported at 2018-Feb-18 22:45 UTC. Time now 2018-Feb-19 12:25 UTC.
Position N 41°00' W 008°45'.

Length 11 m.

Type: Fishing. MMSI: 263267000.

Date/timePositionNaut miles runAvg speedWind from/ knotsBaromVisibWave heightAir tempDewpointWater temp
2018-Feb-18 22:45N 41°00' W 008°45'3 9.9
2018-Feb-18 22:27N 41°03' W 008°44'4 9.8
2018-Feb-18 22:00N 41°07' W 008°43'4 7.1
2018-Feb-18 21:30N 41°11' W 008°42'  
2018-Feb-16 11:04N 41°11' W 008°42'0 0.0
2018-Feb-16 11:00N 41°11' W 008°42'0 0.1
2018-Feb-16 10:30N 41°11' W 008°42'  
2018-Feb-12 03:43N 41°11' W 008°42'0 0.0
2018-Feb-12 03:28N 41°11' W 008°42'3 7.4
2018-Feb-12 03:00N 41°08' W 008°42'8 2.4
2018-Feb-11 23:29N 40°59' W 008°44'5 9.2
2018-Feb-11 22:59N 41°04' W 008°43'5 9.7
2018-Feb-11 22:30N 41°09' W 008°43'2 4.9
2018-Feb-11 22:01N 41°11' W 008°42'  
2018-Feb-09 12:00N 41°11' W 008°42'  

Dump ship's entire track history